sensor_id;sensor_type;location;lat;lon;timestamp;temperature;humidity
26537;DHT22;14204;51.262;5.488;2022-09-09T00:07:04;17.80;99.90
26537;DHT22;14204;51.262;5.488;2022-09-09T00:09:33;17.80;99.90
26537;DHT22;14204;51.262;5.488;2022-09-09T00:12:20;17.80;99.90
26537;DHT22;14204;51.262;5.488;2022-09-09T00:14:55;17.70;99.90
26537;DHT22;14204;51.262;5.488;2022-09-09T00:17:59;17.70;99.90
26537;DHT22;14204;51.262;5.488;2022-09-09T00:20:39;17.60;99.90
26537;DHT22;14204;51.262;5.488;2022-09-09T00:23:29;17.60;99.90
26537;DHT22;14204;51.262;5.488;2022-09-09T00:26:08;17.50;99.90
26537;DHT22;14204;51.262;5.488;2022-09-09T00:29:00;17.50;99.90
26537;DHT22;14204;51.262;5.488;2022-09-09T00:31:29;17.40;99.90
26537;DHT22;14204;51.262;5.488;2022-09-09T00:34:00;17.50;99.90
26537;DHT22;14204;51.262;5.488;2022-09-09T00:36:29;17.40;99.90
26537;DHT22;14204;51.262;5.488;2022-09-09T00:38:59;17.40;99.90
26537;DHT22;14204;51.262;5.488;2022-09-09T00:44:50;17.30;99.90
26537;DHT22;14204;51.262;5.488;2022-09-09T00:55:27;17.30;99.90
26537;DHT22;14204;51.262;5.488;2022-09-09T00:57:57;17.30;99.90
26537;DHT22;14204;51.262;5.488;2022-09-09T01:00:27;17.30;99.90
26537;DHT22;14204;51.262;5.488;2022-09-09T01:03:22;17.30;99.90
26537;DHT22;14204;51.262;5.488;2022-09-09T01:06:16;17.30;99.90
26537;DHT22;14204;51.262;5.488;2022-09-09T01:11:33;17.30;99.90
26537;DHT22;14204;51.262;5.488;2022-09-09T01:20:12;17.30;99.90
26537;DHT22;14204;51.262;5.488;2022-09-09T01:25:56;17.20;99.90
26537;DHT22;14204;51.262;5.488;2022-09-09T01:28:19;17.20;99.90
26537;DHT22;14204;51.262;5.488;2022-09-09T01:30:46;17.20;99.90
26537;DHT22;14204;51.262;5.488;2022-09-09T01:33:17;17.20;99.90
26537;DHT22;14204;51.262;5.488;2022-09-09T01:35:50;17.10;99.90
26537;DHT22;14204;51.262;5.488;2022-09-09T01:38:20;17.10;99.90
26537;DHT22;14204;51.262;5.488;2022-09-09T01:40:46;17.00;99.90
26537;DHT22;14204;51.262;5.488;2022-09-09T01:43:12;17.00;99.90
26537;DHT22;14204;51.262;5.488;2022-09-09T01:45:39;17.00;99.90
26537;DHT22;14204;51.262;5.488;2022-09-09T01:48:06;17.00;99.90
26537;DHT22;14204;51.262;5.488;2022-09-09T01:50:32;17.10;99.90
26537;DHT22;14204;51.262;5.488;2022-09-09T01:52:59;17.10;99.90
26537;DHT22;14204;51.262;5.488;2022-09-09T01:55:39;17.10;99.90
26537;DHT22;14204;51.262;5.488;2022-09-09T02:00:43;16.90;99.90
26537;DHT22;14204;51.262;5.488;2022-09-09T02:03:28;16.90;99.90
26537;DHT22;14204;51.262;5.488;2022-09-09T02:08:32;16.80;99.90
26537;DHT22;14204;51.262;5.488;2022-09-09T02:11:11;16.90;99.90
26537;DHT22;14204;51.262;5.488;2022-09-09T02:13:39;16.90;99.90
26537;DHT22;14204;51.262;5.488;2022-09-09T02:16:08;16.90;99.90
26537;DHT22;14204;51.262;5.488;2022-09-09T02:21:43;16.70;99.90
26537;DHT22;14204;51.262;5.488;2022-09-09T02:24:13;16.80;99.90
26537;DHT22;14204;51.262;5.488;2022-09-09T02:26:42;16.80;99.90
26537;DHT22;14204;51.262;5.488;2022-09-09T02:29:15;16.90;99.90
26537;DHT22;14204;51.262;5.488;2022-09-09T02:31:42;16.80;99.90
26537;DHT22;14204;51.262;5.488;2022-09-09T02:34:10;16.80;99.90
26537;DHT22;14204;51.262;5.488;2022-09-09T02:36:38;16.80;99.90
26537;DHT22;14204;51.262;5.488;2022-09-09T02:39:08;16.70;99.90
26537;DHT22;14204;51.262;5.488;2022-09-09T02:41:37;16.70;99.90
26537;DHT22;14204;51.262;5.488;2022-09-09T02:44:09;16.70;99.90
26537;DHT22;14204;51.262;5.488;2022-09-09T02:49:32;16.70;99.90
26537;DHT22;14204;51.262;5.488;2022-09-09T02:52:08;16.60;99.90
26537;DHT22;14204;51.262;5.488;2022-09-09T02:54:40;16.70;99.90
26537;DHT22;14204;51.262;5.488;2022-09-09T02:57:25;16.70;99.90
26537;DHT22;14204;51.262;5.488;2022-09-09T02:59:52;16.80;99.90
26537;DHT22;14204;51.262;5.488;2022-09-09T03:02:19;16.70;99.90
26537;DHT22;14204;51.262;5.488;2022-09-09T03:04:44;16.70;99.90
26537;DHT22;14204;51.262;5.488;2022-09-09T03:07:16;16.70;99.90
26537;DHT22;14204;51.262;5.488;2022-09-09T03:09:42;16.70;99.90
26537;DHT22;14204;51.262;5.488;2022-09-09T03:12:08;16.80;99.90
26537;DHT22;14204;51.262;5.488;2022-09-09T03:14:37;16.80;99.90
26537;DHT22;14204;51.262;5.488;2022-09-09T03:17:04;16.80;99.90
26537;DHT22;14204;51.262;5.488;2022-09-09T03:19:30;16.80;99.90
26537;DHT22;14204;51.262;5.488;2022-09-09T03:21:57;16.70;99.90
26537;DHT22;14204;51.262;5.488;2022-09-09T03:24:24;16.70;99.90
26537;DHT22;14204;51.262;5.488;2022-09-09T03:26:50;16.70;99.90
26537;DHT22;14204;51.262;5.488;2022-09-09T03:29:16;16.70;99.90
26537;DHT22;14204;51.262;5.488;2022-09-09T03:31:43;16.60;99.90
26537;DHT22;14204;51.262;5.488;2022-09-09T03:34:09;16.60;99.90
26537;DHT22;14204;51.262;5.488;2022-09-09T03:36:35;16.60;99.90
26537;DHT22;14204;51.262;5.488;2022-09-09T03:39:01;16.60;99.90
26537;DHT22;14204;51.262;5.488;2022-09-09T03:41:28;16.60;99.90
26537;DHT22;14204;51.262;5.488;2022-09-09T03:43:54;16.40;99.90
26537;DHT22;14204;51.262;5.488;2022-09-09T03:46:22;16.50;99.90
26537;DHT22;14204;51.262;5.488;2022-09-09T03:48:48;16.60;99.90
26537;DHT22;14204;51.262;5.488;2022-09-09T03:51:14;16.50;99.90
26537;DHT22;14204;51.262;5.488;2022-09-09T03:53:41;16.60;99.90
26537;DHT22;14204;51.262;5.488;2022-09-09T03:56:07;16.60;99.90
26537;DHT22;14204;51.262;5.488;2022-09-09T03:58:34;16.70;99.90
26537;DHT22;14204;51.262;5.488;2022-09-09T04:01:05;16.70;99.90
26537;DHT22;14204;51.262;5.488;2022-09-09T04:03:31;16.70;99.90
26537;DHT22;14204;51.262;5.488;2022-09-09T04:05:59;16.60;99.90
26537;DHT22;14204;51.262;5.488;2022-09-09T04:08:26;16.60;99.90
26537;DHT22;14204;51.262;5.488;2022-09-09T04:10:52;16.50;99.90
26537;DHT22;14204;51.262;5.488;2022-09-09T04:13:18;16.40;99.90
26537;DHT22;14204;51.262;5.488;2022-09-09T04:15:51;16.50;99.90
26537;DHT22;14204;51.262;5.488;2022-09-09T04:18:17;16.60;99.90
26537;DHT22;14204;51.262;5.488;2022-09-09T04:20:43;16.70;99.90
26537;DHT22;14204;51.262;5.488;2022-09-09T04:23:10;16.80;99.90
26537;DHT22;14204;51.262;5.488;2022-09-09T04:25:37;16.80;99.90
26537;DHT22;14204;51.262;5.488;2022-09-09T04:28:03;16.80;99.90
26537;DHT22;14204;51.262;5.488;2022-09-09T04:30:28;16.70;99.90
26537;DHT22;14204;51.262;5.488;2022-09-09T04:32:54;16.80;99.90
26537;DHT22;14204;51.262;5.488;2022-09-09T04:35:20;16.80;99.90
26537;DHT22;14204;51.262;5.488;2022-09-09T04:37:46;16.80;99.90
26537;DHT22;14204;51.262;5.488;2022-09-09T04:40:11;16.80;99.90
26537;DHT22;14204;51.262;5.488;2022-09-09T04:42:38;16.90;99.90
26537;DHT22;14204;51.262;5.488;2022-09-09T04:45:05;16.90;99.90
26537;DHT22;14204;51.262;5.488;2022-09-09T04:47:31;16.80;99.90
26537;DHT22;14204;51.262;5.488;2022-09-09T04:49:57;16.80;99.90
26537;DHT22;14204;51.262;5.488;2022-09-09T04:52:23;16.80;99.90
26537;DHT22;14204;51.262;5.488;2022-09-09T04:54:48;16.90;99.90
26537;DHT22;14204;51.262;5.488;2022-09-09T04:57:14;16.80;99.90
26537;DHT22;14204;51.262;5.488;2022-09-09T04:59:40;16.80;99.90
26537;DHT22;14204;51.262;5.488;2022-09-09T05:02:06;16.80;99.90
26537;DHT22;14204;51.262;5.488;2022-09-09T05:04:32;16.80;99.90
26537;DHT22;14204;51.262;5.488;2022-09-09T05:06:58;16.80;99.90
26537;DHT22;14204;51.262;5.488;2022-09-09T05:09:24;16.80;99.90
26537;DHT22;14204;51.262;5.488;2022-09-09T05:11:50;16.70;99.90
26537;DHT22;14204;51.262;5.488;2022-09-09T05:14:17;16.80;99.90
26537;DHT22;14204;51.262;5.488;2022-09-09T05:16:44;16.80;99.90
26537;DHT22;14204;51.262;5.488;2022-09-09T05:19:10;16.80;99.90
26537;DHT22;14204;51.262;5.488;2022-09-09T05:21:37;16.80;99.90
26537;DHT22;14204;51.262;5.488;2022-09-09T05:24:03;16.80;99.90
26537;DHT22;14204;51.262;5.488;2022-09-09T05:26:29;16.70;99.90
26537;DHT22;14204;51.262;5.488;2022-09-09T05:28:57;16.70;99.90
26537;DHT22;14204;51.262;5.488;2022-09-09T05:31:24;16.60;99.90
26537;DHT22;14204;51.262;5.488;2022-09-09T05:33:54;16.60;99.90
26537;DHT22;14204;51.262;5.488;2022-09-09T05:36:21;16.60;99.90
26537;DHT22;14204;51.262;5.488;2022-09-09T05:38:48;16.70;99.90
26537;DHT22;14204;51.262;5.488;2022-09-09T05:41:14;16.70;99.90
26537;DHT22;14204;51.262;5.488;2022-09-09T05:43:44;16.60;99.90
26537;DHT22;14204;51.262;5.488;2022-09-09T05:46:13;16.60;99.90
26537;DHT22;14204;51.262;5.488;2022-09-09T05:48:44;16.60;99.90
26537;DHT22;14204;51.262;5.488;2022-09-09T05:51:14;16.50;99.90
26537;DHT22;14204;51.262;5.488;2022-09-09T05:53:41;16.50;99.90
26537;DHT22;14204;51.262;5.488;2022-09-09T05:58:38;16.50;99.90
26537;DHT22;14204;51.262;5.488;2022-09-09T06:01:24;16.50;99.90
26537;DHT22;14204;51.262;5.488;2022-09-09T06:03:51;16.40;99.90
26537;DHT22;14204;51.262;5.488;2022-09-09T06:06:25;16.50;99.90
26537;DHT22;14204;51.262;5.488;2022-09-09T06:08:56;16.50;99.90
26537;DHT22;14204;51.262;5.488;2022-09-09T06:11:26;16.50;99.90
26537;DHT22;14204;51.262;5.488;2022-09-09T06:13:52;16.40;99.90
26537;DHT22;14204;51.262;5.488;2022-09-09T06:16:21;16.40;99.90
26537;DHT22;14204;51.262;5.488;2022-09-09T06:18:49;16.40;99.90
26537;DHT22;14204;51.262;5.488;2022-09-09T06:21:21;16.40;99.90
26537;DHT22;14204;51.262;5.488;2022-09-09T06:23:48;16.40;99.90
26537;DHT22;14204;51.262;5.488;2022-09-09T06:28:48;16.50;99.90
26537;DHT22;14204;51.262;5.488;2022-09-09T06:31:19;16.50;99.90
26537;DHT22;14204;51.262;5.488;2022-09-09T06:33:49;16.50;99.90
26537;DHT22;14204;51.262;5.488;2022-09-09T06:36:20;16.50;99.90
26537;DHT22;14204;51.262;5.488;2022-09-09T06:38:46;16.60;99.90
26537;DHT22;14204;51.262;5.488;2022-09-09T06:41:13;16.50;99.90
26537;DHT22;14204;51.262;5.488;2022-09-09T06:43:39;16.60;99.90
26537;DHT22;14204;51.262;5.488;2022-09-09T06:48:39;16.70;99.90
26537;DHT22;14204;51.262;5.488;2022-09-09T06:51:17;16.70;99.90
26537;DHT22;14204;51.262;5.488;2022-09-09T06:53:45;16.70;99.90
26537;DHT22;14204;51.262;5.488;2022-09-09T06:58:40;16.80;99.90
26537;DHT22;14204;51.262;5.488;2022-09-09T07:01:17;16.90;99.90
26537;DHT22;14204;51.262;5.488;2022-09-09T07:03:46;16.90;99.90
26537;DHT22;14204;51.262;5.488;2022-09-09T07:06:22;16.90;99.90
26537;DHT22;14204;51.262;5.488;2022-09-09T07:08:53;16.90;99.90
26537;DHT22;14204;51.262;5.488;2022-09-09T07:11:24;17.00;99.90
26537;DHT22;14204;51.262;5.488;2022-09-09T07:13:51;17.10;99.90
26537;DHT22;14204;51.262;5.488;2022-09-09T07:16:18;17.00;99.90
26537;DHT22;14204;51.262;5.488;2022-09-09T07:18:44;17.10;99.90
26537;DHT22;14204;51.262;5.488;2022-09-09T07:21:14;17.30;99.90
26537;DHT22;14204;51.262;5.488;2022-09-09T07:23:40;17.40;99.90
26537;DHT22;14204;51.262;5.488;2022-09-09T07:26:11;17.40;99.90
26537;DHT22;14204;51.262;5.488;2022-09-09T07:28:37;17.50;99.90
26537;DHT22;14204;51.262;5.488;2022-09-09T07:31:04;17.60;99.90
26537;DHT22;14204;51.262;5.488;2022-09-09T07:33:31;17.70;99.90
26537;DHT22;14204;51.262;5.488;2022-09-09T07:36:27;17.70;99.90
26537;DHT22;14204;51.262;5.488;2022-09-09T07:38:58;17.70;99.90
26537;DHT22;14204;51.262;5.488;2022-09-09T07:41:33;17.80;99.90
26537;DHT22;14204;51.262;5.488;2022-09-09T07:44:03;17.80;99.90
26537;DHT22;14204;51.262;5.488;2022-09-09T07:46:29;17.60;99.90
26537;DHT22;14204;51.262;5.488;2022-09-09T07:48:56;17.70;99.90
26537;DHT22;14204;51.262;5.488;2022-09-09T07:51:29;17.90;99.90
26537;DHT22;14204;51.262;5.488;2022-09-09T07:53:58;17.90;99.90
26537;DHT22;14204;51.262;5.488;2022-09-09T07:56:25;18.00;99.90
26537;DHT22;14204;51.262;5.488;2022-09-09T07:58:52;18.10;99.90
26537;DHT22;14204;51.262;5.488;2022-09-09T08:01:26;18.10;99.90
26537;DHT22;14204;51.262;5.488;2022-09-09T08:04:00;18.00;99.90
26537;DHT22;14204;51.262;5.488;2022-09-09T08:06:28;18.10;99.90
26537;DHT22;14204;51.262;5.488;2022-09-09T08:08:54;18.00;99.90
26537;DHT22;14204;51.262;5.488;2022-09-09T08:11:21;18.10;99.90
26537;DHT22;14204;51.262;5.488;2022-09-09T08:13:49;18.00;99.90
26537;DHT22;14204;51.262;5.488;2022-09-09T08:16:18;18.10;99.90
26537;DHT22;14204;51.262;5.488;2022-09-09T08:18:43;18.00;99.90
26537;DHT22;14204;51.262;5.488;2022-09-09T08:21:15;18.00;99.90
26537;DHT22;14204;51.262;5.488;2022-09-09T08:23:43;18.10;99.90
26537;DHT22;14204;51.262;5.488;2022-09-09T08:28:39;18.20;99.90
26537;DHT22;14204;51.262;5.488;2022-09-09T08:31:16;18.20;99.90
26537;DHT22;14204;51.262;5.488;2022-09-09T08:33:43;18.10;99.90
26537;DHT22;14204;51.262;5.488;2022-09-09T08:36:13;18.20;99.90
26537;DHT22;14204;51.262;5.488;2022-09-09T08:38:41;18.20;99.90
26537;DHT22;14204;51.262;5.488;2022-09-09T08:43:35;18.20;99.90
26537;DHT22;14204;51.262;5.488;2022-09-09T08:46:14;18.30;99.90
26537;DHT22;14204;51.262;5.488;2022-09-09T08:51:08;18.30;99.90
26537;DHT22;14204;51.262;5.488;2022-09-09T08:53:42;18.20;99.90
26537;DHT22;14204;51.262;5.488;2022-09-09T08:56:15;18.30;99.90
26537;DHT22;14204;51.262;5.488;2022-09-09T08:58:52;18.30;99.90
26537;DHT22;14204;51.262;5.488;2022-09-09T09:01:38;18.20;99.90
26537;DHT22;14204;51.262;5.488;2022-09-09T09:12:18;18.70;99.90
26537;DHT22;14204;51.262;5.488;2022-09-09T09:14:46;18.60;99.90
26537;DHT22;14204;51.262;5.488;2022-09-09T09:19:41;18.50;99.90
26537;DHT22;14204;51.262;5.488;2022-09-09T09:25:17;18.50;99.90
26537;DHT22;14204;51.262;5.488;2022-09-09T09:28:16;18.60;99.90
26537;DHT22;14204;51.262;5.488;2022-09-09T09:31:03;18.50;99.90
26537;DHT22;14204;51.262;5.488;2022-09-09T09:35:59;18.60;99.90
26537;DHT22;14204;51.262;5.488;2022-09-09T09:38:26;18.60;99.90
26537;DHT22;14204;51.262;5.488;2022-09-09T09:40:58;18.80;99.90
26537;DHT22;14204;51.262;5.488;2022-09-09T09:43:27;19.10;99.90
26537;DHT22;14204;51.262;5.488;2022-09-09T09:45:54;19.10;99.90
26537;DHT22;14204;51.262;5.488;2022-09-09T09:48:20;18.90;99.90
26537;DHT22;14204;51.262;5.488;2022-09-09T09:53:27;18.90;99.90
26537;DHT22;14204;51.262;5.488;2022-09-09T09:56:06;18.90;99.90
26537;DHT22;14204;51.262;5.488;2022-09-09T10:01:27;18.80;99.90
26537;DHT22;14204;51.262;5.488;2022-09-09T10:03:57;18.80;99.90
26537;DHT22;14204;51.262;5.488;2022-09-09T10:06:33;18.70;99.90
26537;DHT22;14204;51.262;5.488;2022-09-09T10:09:01;18.60;99.90
26537;DHT22;14204;51.262;5.488;2022-09-09T10:11:45;18.60;99.90
26537;DHT22;14204;51.262;5.488;2022-09-09T10:14:21;18.70;99.90
26537;DHT22;14204;51.262;5.488;2022-09-09T10:19:32;18.70;99.90
26537;DHT22;14204;51.262;5.488;2022-09-09T10:22:11;18.60;99.90
26537;DHT22;14204;51.262;5.488;2022-09-09T10:25:00;18.50;99.90
26537;DHT22;14204;51.262;5.488;2022-09-09T10:33:16;18.40;99.90
26537;DHT22;14204;51.262;5.488;2022-09-09T10:36:13;18.30;99.90
26537;DHT22;14204;51.262;5.488;2022-09-09T10:38:45;18.20;99.90
26537;DHT22;14204;51.262;5.488;2022-09-09T10:41:25;18.10;99.90
26537;DHT22;14204;51.262;5.488;2022-09-09T10:46:56;18.20;99.90
26537;DHT22;14204;51.262;5.488;2022-09-09T10:55:18;18.00;99.90
26537;DHT22;14204;51.262;5.488;2022-09-09T10:57:51;18.10;99.90
26537;DHT22;14204;51.262;5.488;2022-09-09T11:00:24;18.10;99.90
26537;DHT22;14204;51.262;5.488;2022-09-09T11:03:00;18.00;99.90
26537;DHT22;14204;51.262;5.488;2022-09-09T11:05:28;18.10;99.90
26537;DHT22;14204;51.262;5.488;2022-09-09T11:07:59;18.20;99.90
26537;DHT22;14204;51.262;5.488;2022-09-09T11:10:49;18.20;99.90
26537;DHT22;14204;51.262;5.488;2022-09-09T11:13:30;18.20;99.90
26537;DHT22;14204;51.262;5.488;2022-09-09T11:16:04;18.20;99.90
26537;DHT22;14204;51.262;5.488;2022-09-09T11:18:31;18.30;99.90
26537;DHT22;14204;51.262;5.488;2022-09-09T11:21:03;18.30;99.90
26537;DHT22;14204;51.262;5.488;2022-09-09T11:26:03;18.40;99.90
26537;DHT22;14204;51.262;5.488;2022-09-09T11:31:46;18.20;99.90
26537;DHT22;14204;51.262;5.488;2022-09-09T11:42:21;18.40;99.90
26537;DHT22;14204;51.262;5.488;2022-09-09T11:44:47;18.50;99.90
26537;DHT22;14204;51.262;5.488;2022-09-09T11:47:26;18.50;99.90
26537;DHT22;14204;51.262;5.488;2022-09-09T11:50:07;18.60;99.90
26537;DHT22;14204;51.262;5.488;2022-09-09T11:52:42;18.80;99.90
26537;DHT22;14204;51.262;5.488;2022-09-09T11:55:29;18.90;99.90
26537;DHT22;14204;51.262;5.488;2022-09-09T11:58:05;18.90;99.90
26537;DHT22;14204;51.262;5.488;2022-09-09T12:00:47;19.10;99.90
26537;DHT22;14204;51.262;5.488;2022-09-09T12:03:48;19.20;99.90
26537;DHT22;14204;51.262;5.488;2022-09-09T12:06:28;19.20;99.90
26537;DHT22;14204;51.262;5.488;2022-09-09T12:11:40;19.30;99.90
26537;DHT22;14204;51.262;5.488;2022-09-09T12:14:20;19.40;99.90
26537;DHT22;14204;51.262;5.488;2022-09-09T12:16:46;19.50;99.90
26537;DHT22;14204;51.262;5.488;2022-09-09T12:19:17;19.60;99.90
26537;DHT22;14204;51.262;5.488;2022-09-09T12:24:37;19.80;99.90
26537;DHT22;14204;51.262;5.488;2022-09-09T12:27:29;19.80;99.90
26537;DHT22;14204;51.262;5.488;2022-09-09T12:30:07;19.80;99.90
26537;DHT22;14204;51.262;5.488;2022-09-09T12:32:35;20.10;99.90
26537;DHT22;14204;51.262;5.488;2022-09-09T12:35:17;20.30;99.90
26537;DHT22;14204;51.262;5.488;2022-09-09T12:37:55;20.00;99.90
26537;DHT22;14204;51.262;5.488;2022-09-09T12:40:30;20.10;99.90
26537;DHT22;14204;51.262;5.488;2022-09-09T12:42:57;20.20;99.90
26537;DHT22;14204;51.262;5.488;2022-09-09T12:45:31;20.30;99.90
26537;DHT22;14204;51.262;5.488;2022-09-09T12:47:57;20.30;99.90
26537;DHT22;14204;51.262;5.488;2022-09-09T12:50:27;20.40;99.90
26537;DHT22;14204;51.262;5.488;2022-09-09T12:53:01;20.30;99.90
26537;DHT22;14204;51.262;5.488;2022-09-09T12:55:29;20.00;99.90
26537;DHT22;14204;51.262;5.488;2022-09-09T12:57:56;20.00;99.90
26537;DHT22;14204;51.262;5.488;2022-09-09T13:00:25;20.30;99.90
26537;DHT22;14204;51.262;5.488;2022-09-09T13:02:54;20.50;99.90
26537;DHT22;14204;51.262;5.488;2022-09-09T13:05:27;20.40;99.90
26537;DHT22;14204;51.262;5.488;2022-09-09T13:08:11;20.30;99.90
26537;DHT22;14204;51.262;5.488;2022-09-09T13:10:51;20.30;99.90
26537;DHT22;14204;51.262;5.488;2022-09-09T13:13:28;20.30;99.90
26537;DHT22;14204;51.262;5.488;2022-09-09T13:15:59;20.10;99.90
26537;DHT22;14204;51.262;5.488;2022-09-09T13:18:31;20.20;99.90
26537;DHT22;14204;51.262;5.488;2022-09-09T13:20:59;20.20;99.90
26537;DHT22;14204;51.262;5.488;2022-09-09T13:23:33;20.30;99.90
26537;DHT22;14204;51.262;5.488;2022-09-09T13:28:50;20.40;99.90
26537;DHT22;14204;51.262;5.488;2022-09-09T13:31:32;20.70;99.90
26537;DHT22;14204;51.262;5.488;2022-09-09T13:33:58;20.70;99.90
26537;DHT22;14204;51.262;5.488;2022-09-09T13:36:32;20.60;99.90
26537;DHT22;14204;51.262;5.488;2022-09-09T13:39:01;20.50;99.90
26537;DHT22;14204;51.262;5.488;2022-09-09T13:41:36;20.50;99.90
26537;DHT22;14204;51.262;5.488;2022-09-09T13:44:19;20.60;99.90
26537;DHT22;14204;51.262;5.488;2022-09-09T13:47:00;20.90;99.90
26537;DHT22;14204;51.262;5.488;2022-09-09T13:49:29;21.00;99.90
26537;DHT22;14204;51.262;5.488;2022-09-09T13:52:24;20.90;99.90
26537;DHT22;14204;51.262;5.488;2022-09-09T13:54:52;21.10;99.90
26537;DHT22;14204;51.262;5.488;2022-09-09T13:57:24;21.00;99.90
26537;DHT22;14204;51.262;5.488;2022-09-09T13:59:51;20.80;99.90
26537;DHT22;14204;51.262;5.488;2022-09-09T14:02:17;21.00;99.90
26537;DHT22;14204;51.262;5.488;2022-09-09T14:04:44;21.20;99.90
26537;DHT22;14204;51.262;5.488;2022-09-09T14:07:14;21.10;99.90
26537;DHT22;14204;51.262;5.488;2022-09-09T14:09:41;21.00;99.90
26537;DHT22;14204;51.262;5.488;2022-09-09T14:12:11;20.90;99.90
26537;DHT22;14204;51.262;5.488;2022-09-09T14:14:37;21.10;99.90
26537;DHT22;14204;51.262;5.488;2022-09-09T14:17:03;21.20;99.90
26537;DHT22;14204;51.262;5.488;2022-09-09T14:19:29;21.10;99.90
26537;DHT22;14204;51.262;5.488;2022-09-09T14:21:57;21.10;99.90
26537;DHT22;14204;51.262;5.488;2022-09-09T14:24:22;21.10;99.90
26537;DHT22;14204;51.262;5.488;2022-09-09T14:26:49;21.00;99.90
26537;DHT22;14204;51.262;5.488;2022-09-09T14:29:14;21.00;99.90
26537;DHT22;14204;51.262;5.488;2022-09-09T14:31:40;21.00;99.90
26537;DHT22;14204;51.262;5.488;2022-09-09T14:34:06;20.90;99.90
26537;DHT22;14204;51.262;5.488;2022-09-09T14:36:32;20.80;99.90
26537;DHT22;14204;51.262;5.488;2022-09-09T14:38:57;20.80;99.90
26537;DHT22;14204;51.262;5.488;2022-09-09T14:41:23;20.80;99.90
26537;DHT22;14204;51.262;5.488;2022-09-09T14:43:51;21.00;99.90
26537;DHT22;14204;51.262;5.488;2022-09-09T14:46:19;21.20;99.90
26537;DHT22;14204;51.262;5.488;2022-09-09T14:48:45;21.30;99.90
26537;DHT22;14204;51.262;5.488;2022-09-09T14:51:22;21.30;99.90
26537;DHT22;14204;51.262;5.488;2022-09-09T14:53:50;21.30;99.90
26537;DHT22;14204;51.262;5.488;2022-09-09T14:56:18;21.20;99.90
26537;DHT22;14204;51.262;5.488;2022-09-09T14:58:44;20.90;99.90
26537;DHT22;14204;51.262;5.488;2022-09-09T15:01:19;21.00;99.90
26537;DHT22;14204;51.262;5.488;2022-09-09T15:03:53;21.10;99.90
26537;DHT22;14204;51.262;5.488;2022-09-09T15:06:21;21.10;99.90
26537;DHT22;14204;51.262;5.488;2022-09-09T15:08:48;21.00;99.90
26537;DHT22;14204;51.262;5.488;2022-09-09T15:11:15;21.00;99.90
26537;DHT22;14204;51.262;5.488;2022-09-09T15:13:42;20.90;99.90
26537;DHT22;14204;51.262;5.488;2022-09-09T15:16:17;20.80;99.90
26537;DHT22;14204;51.262;5.488;2022-09-09T15:18:44;20.70;99.90
26537;DHT22;14204;51.262;5.488;2022-09-09T15:21:16;20.80;99.90
26537;DHT22;14204;51.262;5.488;2022-09-09T15:23:42;20.90;99.90
26537;DHT22;14204;51.262;5.488;2022-09-09T15:26:09;20.90;99.90
26537;DHT22;14204;51.262;5.488;2022-09-09T15:28:36;20.80;99.90
26537;DHT22;14204;51.262;5.488;2022-09-09T15:31:09;20.80;99.90
26537;DHT22;14204;51.262;5.488;2022-09-09T15:33:35;20.80;99.90
26537;DHT22;14204;51.262;5.488;2022-09-09T15:38:38;20.80;99.90
26537;DHT22;14204;51.262;5.488;2022-09-09T15:41:04;20.80;99.90
26537;DHT22;14204;51.262;5.488;2022-09-09T15:43:30;20.80;99.90
26537;DHT22;14204;51.262;5.488;2022-09-09T15:46:00;20.70;99.90
26537;DHT22;14204;51.262;5.488;2022-09-09T15:48:31;20.70;99.90
26537;DHT22;14204;51.262;5.488;2022-09-09T15:51:03;20.80;99.90
26537;DHT22;14204;51.262;5.488;2022-09-09T15:53:30;20.80;99.90
26537;DHT22;14204;51.262;5.488;2022-09-09T15:55:58;20.80;99.90
26537;DHT22;14204;51.262;5.488;2022-09-09T15:58:23;20.90;99.90
26537;DHT22;14204;51.262;5.488;2022-09-09T16:00:49;20.90;99.90
26537;DHT22;14204;51.262;5.488;2022-09-09T16:03:15;21.00;99.90
26537;DHT22;14204;51.262;5.488;2022-09-09T16:05:40;21.00;99.90
26537;DHT22;14204;51.262;5.488;2022-09-09T16:08:06;21.00;99.90
26537;DHT22;14204;51.262;5.488;2022-09-09T16:10:32;21.00;99.90
26537;DHT22;14204;51.262;5.488;2022-09-09T16:12:58;20.90;99.90
26537;DHT22;14204;51.262;5.488;2022-09-09T16:15:24;20.80;99.90
26537;DHT22;14204;51.262;5.488;2022-09-09T16:17:53;20.90;99.90
26537;DHT22;14204;51.262;5.488;2022-09-09T16:20:19;20.90;99.90
26537;DHT22;14204;51.262;5.488;2022-09-09T16:22:45;20.80;99.90
26537;DHT22;14204;51.262;5.488;2022-09-09T16:25:12;20.90;99.90
26537;DHT22;14204;51.262;5.488;2022-09-09T16:27:38;20.80;99.90
26537;DHT22;14204;51.262;5.488;2022-09-09T16:30:04;20.70;99.90
26537;DHT22;14204;51.262;5.488;2022-09-09T16:32:29;20.70;99.90
26537;DHT22;14204;51.262;5.488;2022-09-09T16:34:55;20.80;99.90
26537;DHT22;14204;51.262;5.488;2022-09-09T16:37:21;20.80;99.90
26537;DHT22;14204;51.262;5.488;2022-09-09T16:39:47;20.70;99.90
26537;DHT22;14204;51.262;5.488;2022-09-09T16:42:12;20.80;99.90
26537;DHT22;14204;51.262;5.488;2022-09-09T16:44:38;20.80;99.90
26537;DHT22;14204;51.262;5.488;2022-09-09T16:47:04;20.80;99.90
26537;DHT22;14204;51.262;5.488;2022-09-09T16:49:29;20.80;99.90
26537;DHT22;14204;51.262;5.488;2022-09-09T16:51:57;20.80;99.90
26537;DHT22;14204;51.262;5.488;2022-09-09T16:54:23;20.60;99.90
26537;DHT22;14204;51.262;5.488;2022-09-09T16:56:52;20.40;99.90
26537;DHT22;14204;51.262;5.488;2022-09-09T16:59:19;20.30;99.90
26537;DHT22;14204;51.262;5.488;2022-09-09T17:01:47;20.10;99.90
26537;DHT22;14204;51.262;5.488;2022-09-09T17:04:16;20.10;99.90
26537;DHT22;14204;51.262;5.488;2022-09-09T17:06:47;20.00;99.90
26537;DHT22;14204;51.262;5.488;2022-09-09T17:09:15;20.00;99.90
26537;DHT22;14204;51.262;5.488;2022-09-09T17:11:40;19.90;99.90
26537;DHT22;14204;51.262;5.488;2022-09-09T17:14:08;19.90;99.90
26537;DHT22;14204;51.262;5.488;2022-09-09T17:16:36;19.90;99.90
26537;DHT22;14204;51.262;5.488;2022-09-09T17:19:03;19.80;99.90
26537;DHT22;14204;51.262;5.488;2022-09-09T17:21:30;19.90;99.90
26537;DHT22;14204;51.262;5.488;2022-09-09T17:23:56;19.80;99.90
26537;DHT22;14204;51.262;5.488;2022-09-09T17:26:28;19.80;99.90
26537;DHT22;14204;51.262;5.488;2022-09-09T17:28:54;19.70;99.90
26537;DHT22;14204;51.262;5.488;2022-09-09T17:31:21;19.50;99.90
26537;DHT22;14204;51.262;5.488;2022-09-09T17:33:49;19.50;99.90
26537;DHT22;14204;51.262;5.488;2022-09-09T17:36:18;19.60;99.90
26537;DHT22;14204;51.262;5.488;2022-09-09T17:38:44;19.50;99.90
26537;DHT22;14204;51.262;5.488;2022-09-09T17:41:22;19.50;99.90
26537;DHT22;14204;51.262;5.488;2022-09-09T17:43:48;19.50;99.90
26537;DHT22;14204;51.262;5.488;2022-09-09T17:46:23;19.40;99.90
26537;DHT22;14204;51.262;5.488;2022-09-09T17:48:51;19.50;99.90
26537;DHT22;14204;51.262;5.488;2022-09-09T17:51:22;19.50;99.90